sensor_id;sensor_type;location;lat;lon;timestamp;pressure;altitude;pressure_sealevel;temperature;humidity
50268;BME280;36153;50.960;6.220;2022-09-09T00:05:31;99869.22;;;19.91;60.45
50268;BME280;36153;50.960;6.220;2022-09-09T00:12:15;99869.44;;;19.85;60.26
50268;BME280;36153;50.960;6.220;2022-09-09T00:15:20;99870.09;;;19.67;60.88
50268;BME280;36153;50.960;6.220;2022-09-09T00:21:58;99872.16;;;19.58;61.12
50268;BME280;36153;50.960;6.220;2022-09-09T00:32:17;99857.66;;;19.45;60.84
50268;BME280;36153;50.960;6.220;2022-09-09T00:35:24;99857.00;;;19.38;61.03
50268;BME280;36153;50.960;6.220;2022-09-09T00:38:34;99856.34;;;19.33;61.24
50268;BME280;36153;50.960;6.220;2022-09-09T00:45:02;99845.31;;;19.20;61.21
50268;BME280;36153;50.960;6.220;2022-09-09T00:48:10;99849.16;;;19.12;61.18
50268;BME280;36153;50.960;6.220;2022-09-09T00:51:17;99847.34;;;19.12;61.43
50268;BME280;36153;50.960;6.220;2022-09-09T00:57:57;99841.34;;;19.34;60.57
50268;BME280;36153;50.960;6.220;2022-09-09T01:01:12;99838.97;;;19.26;60.77
50268;BME280;36153;50.960;6.220;2022-09-09T01:04:16;99843.66;;;19.18;60.74
50268;BME280;36153;50.960;6.220;2022-09-09T01:07:21;99836.72;;;19.15;60.71
50268;BME280;36153;50.960;6.220;2022-09-09T01:13:49;99842.19;;;19.09;60.73
50268;BME280;36153;50.960;6.220;2022-09-09T01:17:01;99842.41;;;19.03;60.99
50268;BME280;36153;50.960;6.220;2022-09-09T01:20:13;99841.09;;;18.89;61.40
50268;BME280;36153;50.960;6.220;2022-09-09T01:23:38;99837.22;;;19.00;61.46
50268;BME280;36153;50.960;6.220;2022-09-09T01:26:43;99842.03;;;19.14;61.04
50268;BME280;36153;50.960;6.220;2022-09-09T01:29:43;99849.16;;;19.12;61.06
50268;BME280;36153;50.960;6.220;2022-09-09T01:32:49;99849.19;;;19.10;60.82
50268;BME280;36153;50.960;6.220;2022-09-09T01:35:53;99842.41;;;19.03;61.33
50268;BME280;36153;50.960;6.220;2022-09-09T01:38:56;99841.00;;;19.18;61.27
50268;BME280;36153;50.960;6.220;2022-09-09T01:41:58;99835.59;;;19.22;61.36
50268;BME280;36153;50.960;6.220;2022-09-09T01:44:58;99841.47;;;19.31;61.21
50268;BME280;36153;50.960;6.220;2022-09-09T01:47:59;99836.06;;;19.34;62.00
50268;BME280;36153;50.960;6.220;2022-09-09T01:51:00;99834.81;;;19.44;61.58
50268;BME280;36153;50.960;6.220;2022-09-09T01:54:01;99840.47;;;19.58;61.36
50268;BME280;36153;50.960;6.220;2022-09-09T01:57:18;99831.84;;;19.53;61.50
50268;BME280;36153;50.960;6.220;2022-09-09T02:00:21;99827.09;;;19.63;61.48
50268;BME280;36153;50.960;6.220;2022-09-09T02:03:27;99833.16;;;19.65;61.54
50268;BME280;36153;50.960;6.220;2022-09-09T02:06:35;99831.81;;;19.78;61.00
50268;BME280;36153;50.960;6.220;2022-09-09T02:09:38;99836.47;;;19.95;60.81
50268;BME280;36153;50.960;6.220;2022-09-09T02:12:51;99837.34;;;19.96;60.93
50268;BME280;36153;50.960;6.220;2022-09-09T02:19:12;99827.44;;;20.03;60.66
50268;BME280;36153;50.960;6.220;2022-09-09T02:22:17;99821.69;;;20.13;60.47
50268;BME280;36153;50.960;6.220;2022-09-09T02:25:22;99828.66;;;20.16;60.32
50268;BME280;36153;50.960;6.220;2022-09-09T02:28:26;99825.16;;;20.16;60.47
50268;BME280;36153;50.960;6.220;2022-09-09T02:31:28;99820.50;;;20.22;60.13
50268;BME280;36153;50.960;6.220;2022-09-09T02:34:30;99822.50;;;20.16;59.78
50268;BME280;36153;50.960;6.220;2022-09-09T02:37:37;99823.94;;;20.24;60.06
50268;BME280;36153;50.960;6.220;2022-09-09T02:40:38;99821.22;;;20.26;59.47
50268;BME280;36153;50.960;6.220;2022-09-09T02:43:38;99829.91;;;20.29;59.78
50268;BME280;36153;50.960;6.220;2022-09-09T02:50:12;99821.47;;;20.42;59.45
50268;BME280;36153;50.960;6.220;2022-09-09T02:53:18;99827.13;;;20.33;59.15
50268;BME280;36153;50.960;6.220;2022-09-09T02:56:23;99821.59;;;20.39;59.34
50268;BME280;36153;50.960;6.220;2022-09-09T02:59:26;99814.69;;;20.35;59.52
50268;BME280;36153;50.960;6.220;2022-09-09T03:02:27;99815.81;;;20.51;59.46
50268;BME280;36153;50.960;6.220;2022-09-09T03:05:27;99816.41;;;20.58;59.14
50268;BME280;36153;50.960;6.220;2022-09-09T03:08:28;99818.75;;;20.66;58.77
50268;BME280;36153;50.960;6.220;2022-09-09T03:11:28;99818.09;;;20.60;58.55
50268;BME280;36153;50.960;6.220;2022-09-09T03:14:29;99815.88;;;20.50;58.99
50268;BME280;36153;50.960;6.220;2022-09-09T03:17:30;99821.78;;;20.56;58.89
50268;BME280;36153;50.960;6.220;2022-09-09T03:20:30;99827.84;;;20.58;58.55
50268;BME280;36153;50.960;6.220;2022-09-09T03:23:31;99816.75;;;20.50;58.66
50268;BME280;36153;50.960;6.220;2022-09-09T03:26:31;99816.84;;;20.47;58.87
50268;BME280;36153;50.960;6.220;2022-09-09T03:29:32;99819.19;;;20.55;58.65
50268;BME280;36153;50.960;6.220;2022-09-09T03:32:33;99813.84;;;20.56;58.32
50268;BME280;36153;50.960;6.220;2022-09-09T03:35:33;99811.34;;;20.53;58.44
50268;BME280;36153;50.960;6.220;2022-09-09T03:38:34;99809.34;;;20.58;58.45
50268;BME280;36153;50.960;6.220;2022-09-09T03:41:35;99815.94;;;20.48;58.59
50268;BME280;36153;50.960;6.220;2022-09-09T03:44:37;99825.34;;;20.55;58.17
50268;BME280;36153;50.960;6.220;2022-09-09T03:47:37;99819.06;;;20.58;58.20
50268;BME280;36153;50.960;6.220;2022-09-09T03:50:38;99822.94;;;20.49;58.25
50268;BME280;36153;50.960;6.220;2022-09-09T03:53:38;99826.28;;;20.54;58.33
50268;BME280;36153;50.960;6.220;2022-09-09T03:56:38;99828.41;;;20.68;58.12
50268;BME280;36153;50.960;6.220;2022-09-09T03:59:42;99820.19;;;20.74;57.74
50268;BME280;36153;50.960;6.220;2022-09-09T04:02:43;99829.25;;;20.69;57.84
50268;BME280;36153;50.960;6.220;2022-09-09T04:05:43;99816.94;;;20.68;57.37
50268;BME280;36153;50.960;6.220;2022-09-09T04:08:44;99821.19;;;20.72;57.74
50268;BME280;36153;50.960;6.220;2022-09-09T04:11:45;99823.38;;;20.83;57.40
50268;BME280;36153;50.960;6.220;2022-09-09T04:14:46;99823.50;;;20.79;57.21
50268;BME280;36153;50.960;6.220;2022-09-09T04:17:46;99816.56;;;20.77;57.43
50268;BME280;36153;50.960;6.220;2022-09-09T04:20:48;99805.84;;;20.80;56.77
50268;BME280;36153;50.960;6.220;2022-09-09T04:23:50;99810.53;;;20.73;57.16
50268;BME280;36153;50.960;6.220;2022-09-09T04:26:51;99798.81;;;20.79;57.11
50268;BME280;36153;50.960;6.220;2022-09-09T04:29:52;99800.56;;;20.80;56.74
50268;BME280;36153;50.960;6.220;2022-09-09T04:32:53;99802.28;;;20.81;56.71
50268;BME280;36153;50.960;6.220;2022-09-09T04:35:53;99808.75;;;20.74;57.02
50268;BME280;36153;50.960;6.220;2022-09-09T04:38:54;99801.47;;;20.79;56.95
50268;BME280;36153;50.960;6.220;2022-09-09T04:41:56;99807.91;;;20.94;56.35
50268;BME280;36153;50.960;6.220;2022-09-09T04:44:56;99810.56;;;20.94;56.31
50268;BME280;36153;50.960;6.220;2022-09-09T04:47:57;99816.16;;;20.86;56.46
50268;BME280;36153;50.960;6.220;2022-09-09T04:51:03;99810.75;;;20.67;56.62
50268;BME280;36153;50.960;6.220;2022-09-09T04:54:05;99809.81;;;20.70;57.10
50268;BME280;36153;50.960;6.220;2022-09-09T04:57:06;99806.84;;;20.77;56.59
50268;BME280;36153;50.960;6.220;2022-09-09T05:00:08;99807.72;;;20.78;56.71
50268;BME280;36153;50.960;6.220;2022-09-09T05:03:10;99813.38;;;20.69;57.07
50268;BME280;36153;50.960;6.220;2022-09-09T05:06:16;99822.56;;;20.80;56.76
50268;BME280;36153;50.960;6.220;2022-09-09T05:09:17;99815.94;;;20.70;56.84
50268;BME280;36153;50.960;6.220;2022-09-09T05:12:17;99821.41;;;20.66;56.71
50268;BME280;36153;50.960;6.220;2022-09-09T05:15:17;99821.47;;;20.64;57.19
50268;BME280;36153;50.960;6.220;2022-09-09T05:18:18;99829.09;;;20.72;57.22
50268;BME280;36153;50.960;6.220;2022-09-09T05:21:22;99827.63;;;20.64;56.99
50268;BME280;36153;50.960;6.220;2022-09-09T05:24:23;99827.19;;;20.53;57.45
50268;BME280;36153;50.960;6.220;2022-09-09T05:27:23;99830.38;;;20.61;57.35
50268;BME280;36153;50.960;6.220;2022-09-09T05:30:23;99825.88;;;20.63;56.95
50268;BME280;36153;50.960;6.220;2022-09-09T05:33:27;99827.44;;;20.69;56.33
50268;BME280;36153;50.960;6.220;2022-09-09T05:36:27;99830.47;;;20.60;56.25
50268;BME280;36153;50.960;6.220;2022-09-09T05:39:28;99834.94;;;20.58;55.88
50268;BME280;36153;50.960;6.220;2022-09-09T05:42:31;99828.13;;;20.74;55.67
50268;BME280;36153;50.960;6.220;2022-09-09T05:45:32;99824.69;;;20.50;56.01
50268;BME280;36153;50.960;6.220;2022-09-09T05:48:37;99824.56;;;20.53;55.91
50268;BME280;36153;50.960;6.220;2022-09-09T05:51:38;99826.03;;;20.60;55.99
50268;BME280;36153;50.960;6.220;2022-09-09T05:54:38;99825.16;;;20.60;55.73
50268;BME280;36153;50.960;6.220;2022-09-09T05:57:39;99832.81;;;20.68;55.66
50268;BME280;36153;50.960;6.220;2022-09-09T06:00:39;99823.81;;;20.72;55.29
50268;BME280;36153;50.960;6.220;2022-09-09T06:03:41;99825.56;;;20.73;55.70
50268;BME280;36153;50.960;6.220;2022-09-09T06:06:42;99819.75;;;20.85;54.93
50268;BME280;36153;50.960;6.220;2022-09-09T06:09:43;99820.22;;;20.95;54.92
50268;BME280;36153;50.960;6.220;2022-09-09T06:12:43;99821.41;;;21.08;54.30
50268;BME280;36153;50.960;6.220;2022-09-09T06:15:51;99821.47;;;21.07;54.33
50268;BME280;36153;50.960;6.220;2022-09-09T06:18:52;99826.06;;;21.03;54.43
50268;BME280;36153;50.960;6.220;2022-09-09T06:21:53;99824.09;;;21.07;54.81
50268;BME280;36153;50.960;6.220;2022-09-09T06:24:54;99823.59;;;20.78;54.65
50268;BME280;36153;50.960;6.220;2022-09-09T06:27:55;99822.41;;;20.85;54.56
50268;BME280;36153;50.960;6.220;2022-09-09T06:31:00;99830.34;;;20.85;54.58
50268;BME280;36153;50.960;6.220;2022-09-09T06:34:01;99825.19;;;20.82;54.72
50268;BME280;36153;50.960;6.220;2022-09-09T06:37:02;99817.41;;;20.77;54.68
50268;BME280;36153;50.960;6.220;2022-09-09T06:40:02;99824.91;;;20.88;54.24
50268;BME280;36153;50.960;6.220;2022-09-09T06:43:03;99826.75;;;21.07;53.62
50268;BME280;36153;50.960;6.220;2022-09-09T06:46:06;99826.03;;;21.24;53.18
50268;BME280;36153;50.960;6.220;2022-09-09T06:49:08;99825.69;;;21.31;52.63
50268;BME280;36153;50.960;6.220;2022-09-09T06:52:09;99833.31;;;21.19;52.72
50268;BME280;36153;50.960;6.220;2022-09-09T06:55:10;99825.16;;;21.44;53.06
50268;BME280;36153;50.960;6.220;2022-09-09T06:58:10;99812.84;;;21.22;52.34
50268;BME280;36153;50.960;6.220;2022-09-09T07:01:13;99814.19;;;21.33;52.36
50268;BME280;36153;50.960;6.220;2022-09-09T07:04:14;99826.47;;;21.75;52.21
50268;BME280;36153;50.960;6.220;2022-09-09T07:07:15;99812.00;;;22.01;51.55
50268;BME280;36153;50.960;6.220;2022-09-09T07:10:15;99826.44;;;22.32;50.11
50268;BME280;36153;50.960;6.220;2022-09-09T07:13:15;99822.06;;;22.50;49.92
50268;BME280;36153;50.960;6.220;2022-09-09T07:16:18;99815.03;;;22.49;49.24
50268;BME280;36153;50.960;6.220;2022-09-09T07:19:19;99830.03;;;22.50;48.79
50268;BME280;36153;50.960;6.220;2022-09-09T07:22:19;99832.03;;;22.45;49.38
50268;BME280;36153;50.960;6.220;2022-09-09T07:25:20;99823.28;;;22.62;49.23
50268;BME280;36153;50.960;6.220;2022-09-09T07:28:25;99836.75;;;22.57;49.01
50268;BME280;36153;50.960;6.220;2022-09-09T07:31:30;99834.63;;;22.27;49.06
50268;BME280;36153;50.960;6.220;2022-09-09T07:34:31;99825.31;;;22.38;49.40
50268;BME280;36153;50.960;6.220;2022-09-09T07:37:31;99831.16;;;22.25;49.39
50268;BME280;36153;50.960;6.220;2022-09-09T07:40:32;99834.56;;;22.10;49.70
50268;BME280;36153;50.960;6.220;2022-09-09T07:43:33;99826.91;;;22.04;49.89
50268;BME280;36153;50.960;6.220;2022-09-09T07:46:35;99829.41;;;22.07;49.84
50268;BME280;36153;50.960;6.220;2022-09-09T07:49:35;99828.63;;;22.05;49.48
50268;BME280;36153;50.960;6.220;2022-09-09T07:52:36;99828.16;;;22.33;49.52
50268;BME280;36153;50.960;6.220;2022-09-09T07:55:37;99827.41;;;22.67;49.01
50268;BME280;36153;50.960;6.220;2022-09-09T07:58:39;99827.56;;;22.82;49.22
50268;BME280;36153;50.960;6.220;2022-09-09T08:01:42;99824.16;;;22.97;48.14
50268;BME280;36153;50.960;6.220;2022-09-09T08:04:43;99820.50;;;23.17;47.33
50268;BME280;36153;50.960;6.220;2022-09-09T08:07:43;99833.03;;;22.96;47.32
50268;BME280;36153;50.960;6.220;2022-09-09T08:10:44;99831.81;;;23.21;47.10
50268;BME280;36153;50.960;6.220;2022-09-09T08:13:44;99837.38;;;23.16;47.30
50268;BME280;36153;50.960;6.220;2022-09-09T08:16:47;99840.88;;;23.17;46.97
50268;BME280;36153;50.960;6.220;2022-09-09T08:19:48;99846.94;;;23.37;47.22
50268;BME280;36153;50.960;6.220;2022-09-09T08:22:49;99849.81;;;23.16;47.07
50268;BME280;36153;50.960;6.220;2022-09-09T08:25:50;99851.19;;;23.23;46.30
50268;BME280;36153;50.960;6.220;2022-09-09T08:28:53;99850.22;;;23.59;46.62
50268;BME280;36153;50.960;6.220;2022-09-09T08:31:58;99852.25;;;23.54;45.23
50268;BME280;36153;50.960;6.220;2022-09-09T08:35:00;99854.53;;;24.11;44.57
50268;BME280;36153;50.960;6.220;2022-09-09T08:38:01;99858.13;;;24.10;43.83
50268;BME280;36153;50.960;6.220;2022-09-09T08:48:16;99867.03;;;24.57;43.80
50268;BME280;36153;50.960;6.220;2022-09-09T08:51:21;99874.94;;;24.59;43.45
50268;BME280;36153;50.960;6.220;2022-09-09T08:54:24;99855.88;;;24.50;42.94
50268;BME280;36153;50.960;6.220;2022-09-09T08:57:31;99865.00;;;24.62;44.32
50268;BME280;36153;50.960;6.220;2022-09-09T09:00:41;99862.34;;;24.30;43.35
50268;BME280;36153;50.960;6.220;2022-09-09T09:07:24;99856.31;;;24.75;42.09
50268;BME280;36153;50.960;6.220;2022-09-09T09:10:49;99863.75;;;25.45;41.80
50268;BME280;36153;50.960;6.220;2022-09-09T09:13:58;99859.34;;;25.29;41.08
50268;BME280;36153;50.960;6.220;2022-09-09T09:17:06;99863.44;;;25.04;41.06
50268;BME280;36153;50.960;6.220;2022-09-09T09:20:17;99858.47;;;25.73;41.28
50268;BME280;36153;50.960;6.220;2022-09-09T09:23:24;99863.13;;;25.55;40.58
50268;BME280;36153;50.960;6.220;2022-09-09T09:26:34;99859.38;;;25.44;40.82
50268;BME280;36153;50.960;6.220;2022-09-09T09:29:35;99867.47;;;25.56;40.82
50268;BME280;36153;50.960;6.220;2022-09-09T09:32:36;99865.09;;;25.37;40.23
50268;BME280;36153;50.960;6.220;2022-09-09T09:35:38;99867.22;;;25.16;41.70
50268;BME280;36153;50.960;6.220;2022-09-09T09:38:39;99865.94;;;25.08;41.36
50268;BME280;36153;50.960;6.220;2022-09-09T09:41:41;99869.19;;;25.13;40.96
50268;BME280;36153;50.960;6.220;2022-09-09T09:44:43;99871.00;;;24.82;41.04
50268;BME280;36153;50.960;6.220;2022-09-09T09:47:43;99868.25;;;25.28;40.61
50268;BME280;36153;50.960;6.220;2022-09-09T09:50:54;99866.38;;;25.30;40.97
50268;BME280;36153;50.960;6.220;2022-09-09T09:57:12;99870.19;;;26.41;38.74
50268;BME280;36153;50.960;6.220;2022-09-09T10:00:20;99862.53;;;25.79;39.41
50268;BME280;36153;50.960;6.220;2022-09-09T10:03:29;99869.38;;;25.54;40.29
50268;BME280;36153;50.960;6.220;2022-09-09T10:06:35;99876.66;;;24.76;40.50
50268;BME280;36153;50.960;6.220;2022-09-09T10:09:36;99870.75;;;24.39;40.37
50268;BME280;36153;50.960;6.220;2022-09-09T10:19:06;99871.34;;;24.60;41.75
50268;BME280;36153;50.960;6.220;2022-09-09T10:22:32;99870.16;;;24.65;41.00
50268;BME280;36153;50.960;6.220;2022-09-09T10:26:07;99879.25;;;25.08;41.18
50268;BME280;36153;50.960;6.220;2022-09-09T10:30:34;99881.00;;;25.23;41.47
50268;BME280;36153;50.960;6.220;2022-09-09T10:33:10;99875.94;;;25.63;41.03
50268;BME280;36153;50.960;6.220;2022-09-09T10:36:22;99879.25;;;25.38;41.01
50268;BME280;36153;50.960;6.220;2022-09-09T10:39:37;99873.38;;;25.76;41.38
50268;BME280;36153;50.960;6.220;2022-09-09T10:42:41;99878.03;;;25.44;41.50
50268;BME280;36153;50.960;6.220;2022-09-09T10:45:55;99884.44;;;25.70;41.14
50268;BME280;36153;50.960;6.220;2022-09-09T10:52:22;99885.19;;;25.27;41.99
50268;BME280;36153;50.960;6.220;2022-09-09T10:55:27;99882.16;;;25.64;41.26
50268;BME280;36153;50.960;6.220;2022-09-09T10:58:48;99878.91;;;25.73;41.78
50268;BME280;36153;50.960;6.220;2022-09-09T11:01:58;99882.91;;;25.51;42.09
50268;BME280;36153;50.960;6.220;2022-09-09T11:05:36;99883.56;;;25.55;43.13
50268;BME280;36153;50.960;6.220;2022-09-09T11:08:40;99876.72;;;25.80;41.27
50268;BME280;36153;50.960;6.220;2022-09-09T11:11:47;99879.38;;;25.51;41.92
50268;BME280;36153;50.960;6.220;2022-09-09T11:14:56;99881.63;;;26.44;41.19
50268;BME280;36153;50.960;6.220;2022-09-09T11:18:01;99875.50;;;26.14;41.03
50268;BME280;36153;50.960;6.220;2022-09-09T11:21:09;99867.19;;;26.61;40.23
50268;BME280;36153;50.960;6.220;2022-09-09T11:24:26;99870.72;;;26.61;39.85
50268;BME280;36153;50.960;6.220;2022-09-09T11:31:07;99881.84;;;26.26;40.71
50268;BME280;36153;50.960;6.220;2022-09-09T11:37:38;99873.59;;;26.85;39.29
50268;BME280;36153;50.960;6.220;2022-09-09T11:40:41;99866.97;;;26.36;40.56
50268;BME280;36153;50.960;6.220;2022-09-09T11:43:47;99866.41;;;27.26;39.54
50268;BME280;36153;50.960;6.220;2022-09-09T11:46:51;99863.38;;;26.92;38.99
50268;BME280;36153;50.960;6.220;2022-09-09T11:49:52;99873.81;;;26.40;40.51
50268;BME280;36153;50.960;6.220;2022-09-09T11:53:25;99871.00;;;26.00;41.15
50268;BME280;36153;50.960;6.220;2022-09-09T11:59:30;99877.78;;;25.63;41.86
50268;BME280;36153;50.960;6.220;2022-09-09T12:02:31;99880.69;;;25.13;42.40
50268;BME280;36153;50.960;6.220;2022-09-09T12:05:41;99885.41;;;24.46;43.88
50268;BME280;36153;50.960;6.220;2022-09-09T12:08:46;99892.28;;;24.50;44.09
50268;BME280;36153;50.960;6.220;2022-09-09T12:11:47;99874.94;;;24.11;44.57
50268;BME280;36153;50.960;6.220;2022-09-09T12:15:00;99878.03;;;24.19;44.63
50268;BME280;36153;50.960;6.220;2022-09-09T12:18:01;99879.88;;;24.97;44.69
50268;BME280;36153;50.960;6.220;2022-09-09T12:21:21;99880.97;;;25.39;42.68
50268;BME280;36153;50.960;6.220;2022-09-09T12:24:40;99880.09;;;25.38;44.78
50268;BME280;36153;50.960;6.220;2022-09-09T12:28:02;99882.50;;;25.58;45.01
50268;BME280;36153;50.960;6.220;2022-09-09T12:31:41;99876.44;;;25.55;43.12
50268;BME280;36153;50.960;6.220;2022-09-09T12:34:46;99875.59;;;25.69;42.81
50268;BME280;36153;50.960;6.220;2022-09-09T12:37:53;99872.81;;;25.85;42.35
50268;BME280;36153;50.960;6.220;2022-09-09T12:40:57;99860.81;;;25.78;43.06
50268;BME280;36153;50.960;6.220;2022-09-09T12:44:09;99861.78;;;25.92;42.55
50268;BME280;36153;50.960;6.220;2022-09-09T12:47:11;99862.81;;;25.89;41.71
50268;BME280;36153;50.960;6.220;2022-09-09T12:50:21;99858.84;;;25.82;42.14
50268;BME280;36153;50.960;6.220;2022-09-09T12:53:25;99867.38;;;25.44;43.22
50268;BME280;36153;50.960;6.220;2022-09-09T12:56:31;99870.72;;;25.17;44.50
50268;BME280;36153;50.960;6.220;2022-09-09T12:59:38;99871.78;;;24.36;47.18
50268;BME280;36153;50.960;6.220;2022-09-09T13:03:16;99871.41;;;23.77;49.88
50268;BME280;36153;50.960;6.220;2022-09-09T13:06:25;99862.44;;;23.62;52.41
50268;BME280;36153;50.960;6.220;2022-09-09T13:09:26;99854.56;;;24.90;53.32
50268;BME280;36153;50.960;6.220;2022-09-09T13:12:27;99850.53;;;25.43;50.66
50268;BME280;36153;50.960;6.220;2022-09-09T13:15:29;99848.16;;;25.96;50.02
50268;BME280;36153;50.960;6.220;2022-09-09T13:18:33;99842.06;;;26.50;46.46
50268;BME280;36153;50.960;6.220;2022-09-09T13:21:37;99832.56;;;26.32;46.69
50268;BME280;36153;50.960;6.220;2022-09-09T13:24:37;99829.00;;;26.18;45.57
50268;BME280;36153;50.960;6.220;2022-09-09T13:27:40;99837.97;;;26.99;45.25
50268;BME280;36153;50.960;6.220;2022-09-09T13:30:41;99827.50;;;27.22;45.44
50268;BME280;36153;50.960;6.220;2022-09-09T13:33:44;99826.38;;;27.52;43.14
50268;BME280;36153;50.960;6.220;2022-09-09T13:36:47;99829.69;;;26.62;44.90
50268;BME280;36153;50.960;6.220;2022-09-09T13:39:52;99820.84;;;26.07;44.76
50268;BME280;36153;50.960;6.220;2022-09-09T13:42:57;99824.16;;;25.67;44.95
50268;BME280;36153;50.960;6.220;2022-09-09T13:46:04;99818.25;;;25.91;45.04
50268;BME280;36153;50.960;6.220;2022-09-09T13:52:11;99812.16;;;25.89;44.03
50268;BME280;36153;50.960;6.220;2022-09-09T13:55:13;99815.41;;;25.80;44.72
50268;BME280;36153;50.960;6.220;2022-09-09T13:58:17;99804.84;;;25.35;45.25
50268;BME280;36153;50.960;6.220;2022-09-09T14:01:21;99808.47;;;25.34;44.98
50268;BME280;36153;50.960;6.220;2022-09-09T14:04:21;99813.03;;;25.46;44.09
50268;BME280;36153;50.960;6.220;2022-09-09T14:07:22;99815.25;;;25.09;44.89
50268;BME280;36153;50.960;6.220;2022-09-09T14:10:22;99828.66;;;25.08;44.10
50268;BME280;36153;50.960;6.220;2022-09-09T14:13:23;99831.03;;;25.57;43.81
50268;BME280;36153;50.960;6.220;2022-09-09T14:16:23;99835.22;;;25.76;45.34
50268;BME280;36153;50.960;6.220;2022-09-09T14:19:23;99825.69;;;26.42;43.92
50268;BME280;36153;50.960;6.220;2022-09-09T14:22:24;99820.53;;;26.94;42.92
50268;BME280;36153;50.960;6.220;2022-09-09T14:25:25;99830.97;;;26.84;43.64
50268;BME280;36153;50.960;6.220;2022-09-09T14:28:25;99828.25;;;26.02;42.45
50268;BME280;36153;50.960;6.220;2022-09-09T14:31:26;99815.91;;;25.43;42.45
50268;BME280;36153;50.960;6.220;2022-09-09T14:34:26;99823.44;;;25.65;43.15
50268;BME280;36153;50.960;6.220;2022-09-09T14:37:27;99817.41;;;25.76;42.67
50268;BME280;36153;50.960;6.220;2022-09-09T14:40:28;99813.53;;;25.08;43.42
50268;BME280;36153;50.960;6.220;2022-09-09T14:43:29;99813.59;;;25.80;42.79
50268;BME280;36153;50.960;6.220;2022-09-09T14:46:32;99808.81;;;25.28;42.20
50268;BME280;36153;50.960;6.220;2022-09-09T14:49:34;99817.88;;;24.64;44.26
50268;BME280;36153;50.960;6.220;2022-09-09T14:52:34;99815.03;;;24.67;44.30
50268;BME280;36153;50.960;6.220;2022-09-09T14:55:36;99807.16;;;25.11;43.88
50268;BME280;36153;50.960;6.220;2022-09-09T14:58:37;99816.28;;;25.07;45.38
50268;BME280;36153;50.960;6.220;2022-09-09T15:01:38;99822.09;;;25.13;44.73
50268;BME280;36153;50.960;6.220;2022-09-09T15:04:39;99823.56;;;24.88;45.10
50268;BME280;36153;50.960;6.220;2022-09-09T15:07:39;99817.25;;;24.75;45.96
50268;BME280;36153;50.960;6.220;2022-09-09T15:10:40;99807.28;;;25.24;44.87
50268;BME280;36153;50.960;6.220;2022-09-09T15:13:42;99817.41;;;25.62;43.77
50268;BME280;36153;50.960;6.220;2022-09-09T15:16:43;99808.72;;;26.16;42.93
50268;BME280;36153;50.960;6.220;2022-09-09T15:19:43;99813.88;;;25.76;44.10
50268;BME280;36153;50.960;6.220;2022-09-09T15:22:44;99813.38;;;24.81;45.60
50268;BME280;36153;50.960;6.220;2022-09-09T15:25:52;99821.81;;;24.41;46.88
50268;BME280;36153;50.960;6.220;2022-09-09T15:28:52;99832.22;;;24.46;47.07
50268;BME280;36153;50.960;6.220;2022-09-09T15:31:54;99825.81;;;23.84;50.78
50268;BME280;36153;50.960;6.220;2022-09-09T15:34:55;99824.31;;;23.29;53.20
50268;BME280;36153;50.960;6.220;2022-09-09T15:37:55;99825.75;;;23.19;54.17
50268;BME280;36153;50.960;6.220;2022-09-09T15:40:57;99834.72;;;23.34;53.97
50268;BME280;36153;50.960;6.220;2022-09-09T15:43:58;99831.53;;;23.77;54.09
50268;BME280;36153;50.960;6.220;2022-09-09T15:47:00;99825.41;;;24.56;52.11
50268;BME280;36153;50.960;6.220;2022-09-09T15:50:00;99824.25;;;25.07;51.06
50268;BME280;36153;50.960;6.220;2022-09-09T15:53:01;99830.47;;;24.77;49.96
50268;BME280;36153;50.960;6.220;2022-09-09T15:56:01;99833.09;;;24.62;50.23
50268;BME280;36153;50.960;6.220;2022-09-09T15:59:02;99834.47;;;24.84;49.51
50268;BME280;36153;50.960;6.220;2022-09-09T16:02:03;99829.78;;;25.03;47.74
50268;BME280;36153;50.960;6.220;2022-09-09T16:05:05;99825.28;;;25.34;48.54
50268;BME280;36153;50.960;6.220;2022-09-09T16:08:07;99825.59;;;25.73;47.24
50268;BME280;36153;50.960;6.220;2022-09-09T16:11:09;99832.25;;;25.07;48.56
50268;BME280;36153;50.960;6.220;2022-09-09T16:14:10;99831.50;;;24.58;49.01
50268;BME280;36153;50.960;6.220;2022-09-09T16:17:11;99826.28;;;25.03;48.16
50268;BME280;36153;50.960;6.220;2022-09-09T16:20:11;99832.53;;;25.32;46.86
50268;BME280;36153;50.960;6.220;2022-09-09T16:23:12;99834.66;;;25.11;47.85
50268;BME280;36153;50.960;6.220;2022-09-09T16:26:13;99830.66;;;25.18;46.86
50268;BME280;36153;50.960;6.220;2022-09-09T16:29:16;99834.34;;;25.01;47.42
50268;BME280;36153;50.960;6.220;2022-09-09T16:32:17;99829.94;;;24.86;47.50
50268;BME280;36153;50.960;6.220;2022-09-09T16:35:18;99831.44;;;24.44;47.61
50268;BME280;36153;50.960;6.220;2022-09-09T16:38:20;99840.09;;;24.63;47.90
50268;BME280;36153;50.960;6.220;2022-09-09T16:41:21;99834.25;;;24.41;47.96
50268;BME280;36153;50.960;6.220;2022-09-09T16:44:21;99839.50;;;24.10;48.61
50268;BME280;36153;50.960;6.220;2022-09-09T16:47:22;99850.66;;;23.67;49.06
50268;BME280;36153;50.960;6.220;2022-09-09T16:50:22;99857.22;;;23.60;49.34
50268;BME280;36153;50.960;6.220;2022-09-09T16:53:23;99862.75;;;23.40;49.97
50268;BME280;36153;50.960;6.220;2022-09-09T16:56:25;99856.00;;;23.32;49.95
50268;BME280;36153;50.960;6.220;2022-09-09T16:59:26;99857.53;;;23.21;50.26
50268;BME280;36153;50.960;6.220;2022-09-09T17:02:26;99850.91;;;23.10;50.93
50268;BME280;36153;50.960;6.220;2022-09-09T17:05:28;99857.09;;;22.93;51.16
50268;BME280;36153;50.960;6.220;2022-09-09T17:08:29;99857.72;;;22.98;51.31
50268;BME280;36153;50.960;6.220;2022-09-09T17:11:30;99860.66;;;22.75;52.10
50268;BME280;36153;50.960;6.220;2022-09-09T17:14:31;99869.88;;;22.85;51.77
50268;BME280;36153;50.960;6.220;2022-09-09T17:17:31;99876.25;;;22.81;51.84
50268;BME280;36153;50.960;6.220;2022-09-09T17:20:35;99872.03;;;22.77;51.88
50268;BME280;36153;50.960;6.220;2022-09-09T17:23:36;99881.72;;;22.60;52.48
50268;BME280;36153;50.960;6.220;2022-09-09T17:26:38;99884.22;;;22.63;52.41